TimePST,TemperatureF,Dew PointF,Humidity,Sea Level PressureIn,VisibilityMPH,Wind Direction,Wind SpeedMPH,Gust SpeedMPH,PrecipitationIn,Events,Conditions,WindDirDegrees,DateUTC
12:56 AM,39.9,28.9,65,30.24,9.0,SW,8.1,-,N/A,,Clear,230,2014-01-11 08:56:00
1:56 AM,39.9,30.0,68,30.24,9.0,SW,9.2,-,N/A,,Clear,230,2014-01-11 09:56:00
2:56 AM,42.1,32.0,67,30.24,10.0,Calm,Calm,-,N/A,,Clear,0,2014-01-11 10:56:00
3:56 AM,39.9,30.9,70,30.24,9.0,Variable,4.6,-,N/A,,Clear,0,2014-01-11 11:56:00
4:56 AM,37.9,28.9,70,30.23,8.0,Calm,Calm,-,N/A,,Clear,0,2014-01-11 12:56:00
5:56 AM,37.0,28.0,70,30.24,7.0,ESE,4.6,-,N/A,,Clear,120,2014-01-11 13:56:00
6:56 AM,36.0,28.0,73,30.25,6.0,ESE,6.9,-,N/A,,Haze,120,2014-01-11 14:56:00
7:33 AM,36.0,27.0,70,30.24,4.0,SSE,4.6,-,N/A,,Haze,150,2014-01-11 15:33:00
7:56 AM,36.0,27.0,70,30.27,4.0,East,3.5,-,N/A,,Haze,90,2014-01-11 15:56:00
8:01 AM,37.0,28.9,73,30.26,1.2,ESE,4.6,-,N/A,,Haze,110,2014-01-11 16:01:00
8:09 AM,37.9,33.1,83,30.26,0.5,East,3.5,-,N/A,,Haze,100,2014-01-11 16:09:00
8:16 AM,39.0,34.0,82,30.26,1.0,ESE,5.8,-,N/A,,Haze,110,2014-01-11 16:16:00
8:22 AM,39.9,34.0,79,30.26,2.0,ESE,4.6,-,N/A,,Haze,110,2014-01-11 16:22:00
8:26 AM,39.9,34.0,79,30.26,3.0,SE,4.6,-,N/A,,Haze,130,2014-01-11 16:26:00
8:56 AM,45.0,36.0,71,30.27,5.0,SSE,5.8,-,N/A,,Haze,160,2014-01-11 16:56:00
9:56 AM,52.0,39.0,61,30.27,5.0,SE,5.8,-,N/A,,Haze,140,2014-01-11 17:56:00
10:56 AM,57.0,41.0,55,30.27,5.0,Calm,Calm,-,N/A,,Haze,0,2014-01-11 18:56:00
11:56 AM,62.1,43.0,50,30.24,5.0,Calm,Calm,-,N/A,,Haze,0,2014-01-11 19:56:00
12:56 PM,64.0,43.0,46,30.19,5.0,Variable,5.8,-,N/A,,Haze,0,2014-01-11 20:56:00
1:56 PM,64.0,43.0,46,30.15,6.0,SE,8.1,-,N/A,,Haze,140,2014-01-11 21:56:00
2:56 PM,64.0,43.0,46,30.16,6.0,South,5.8,-,N/A,,Haze,170,2014-01-11 22:56:00
3:56 PM,63.0,43.0,48,30.14,6.0,SSE,3.5,-,N/A,,Haze,150,2014-01-11 23:56:00
4:56 PM,62.1,42.1,48,30.15,6.0,Calm,Calm,-,N/A,,Haze,0,2014-01-12 00:56:00
5:56 PM,55.9,41.0,57,30.18,6.0,NNW,8.1,-,N/A,,Haze,340,2014-01-12 01:56:00
6:56 PM,55.9,41.0,57,30.19,6.0,North,8.1,-,N/A,,Haze,360,2014-01-12 02:56:00
7:56 PM,52.0,39.0,61,30.19,6.0,NW,8.1,-,N/A,,Haze,320,2014-01-12 03:56:00
8:56 PM,52.0,39.9,63,30.22,6.0,NW,11.5,-,N/A,,Haze,310,2014-01-12 04:56:00
9:56 PM,52.0,41.0,66,30.24,4.0,NNW,13.8,-,N/A,,Haze,330,2014-01-12 05:56:00
10:56 PM,52.0,42.1,69,30.23,4.0,NW,10.4,-,N/A,,Haze,320,2014-01-12 06:56:00
11:56 PM,48.0,39.9,74,30.24,4.0,NNW,11.5,-,N/A,,Haze,330,2014-01-12 07:56:00